Time;durP1;ratioP1;P1;durP2;ratioP2;P2;SDS_P1;SDS_P2;PMS_P1;PMS_P2;Temp;Humidity;BMP_temperature;BMP_pressure;BME280_temperature;BME280_humidity;BME280_pressure;Samples;Min_cycle;Max_cycle;Signal;HPM_P1;HPM_P2
2022/01/21 00:00:21;;;;;;;;;5.67;4.33;;;;;6.34;60.39;103129.84;5098729;27;46486;-71
2022/01/21 00:02:47;;;;;;;;;6.00;5.00;;;;;6.34;60.18;103136.13;5097947;27;45776;-78
2022/01/21 00:05:15;;;;;;;;;6.00;4.00;;;;;6.30;60.18;103131.06;5080066;27;45547;-73
2022/01/21 00:07:41;;;;;;;;;9.67;6.00;;;;;6.28;59.71;103136.63;5095270;27;45611;-75
2022/01/21 00:10:07;;;;;;;;;14.33;8.00;;;;;6.25;60.32;103139.59;5096259;27;46113;-73
2022/01/21 00:12:37;;;;;;;;;9.00;5.67;;;;;6.17;59.96;103140.22;5092475;27;45478;-73
2022/01/21 00:15:08;;;;;;;;;9.33;6.67;;;;;6.16;60.56;103133.00;5083081;27;45414;-78
2022/01/21 00:17:34;;;;;;;;;12.00;7.33;;;;;6.11;60.02;103129.78;5096336;27;45816;-79
2022/01/21 00:30:58;;;;;;;;;9.00;7.00;;;;;5.91;61.51;103127.72;5098839;27;45543;-71
2022/01/21 00:33:23;;;;;;;;;5.00;5.00;;;;;5.87;60.83;103121.66;5093569;27;45427;-72
2022/01/21 00:35:49;;;;;;;;;5.67;5.67;;;;;5.84;61.73;103121.91;5103572;27;45426;-77
2022/01/21 00:38:15;;;;;;;;;8.67;4.67;;;;;5.80;61.55;103114.94;5103091;27;45474;-80
2022/01/21 00:40:41;;;;;;;;;7.00;4.00;;;;;5.80;61.57;103126.69;5084143;27;47101;-81
2022/01/21 00:43:18;;;;;;;;;8.00;6.00;;;;;5.77;61.76;103126.94;5074571;27;45545;-74
2022/01/21 00:45:44;;;;;;;;;5.67;4.67;;;;;5.75;61.83;103112.59;5080519;27;45655;-80
2022/01/21 00:48:09;;;;;;;;;7.00;5.00;;;;;5.76;61.94;103108.88;5097299;27;45696;-74
2022/01/21 00:50:35;;;;;;;;;5.00;4.33;;;;;5.75;61.92;103103.53;5097797;27;45410;-79
2022/01/21 00:53:01;;;;;;;;;8.00;6.33;;;;;5.75;62.05;103112.59;5097530;27;45734;-80
2022/01/21 00:55:28;;;;;;;;;10.33;7.67;;;;;5.76;61.89;103117.06;5097116;27;45539;-79
2022/01/21 00:57:53;;;;;;;;;10.67;7.00;;;;;5.72;62.23;103121.00;5098130;27;45948;-74
2022/01/21 01:00:18;;;;;;;;;7.00;5.00;;;;;5.73;62.39;103113.69;5098481;27;45496;-80
2022/01/21 01:02:44;;;;;;;;;7.00;4.00;;;;;5.70;62.03;103114.78;5081657;27;45632;-79
2022/01/21 01:05:11;;;;;;;;;6.67;5.67;;;;;5.72;62.32;103120.09;5100652;27;45799;-78
2022/01/21 01:07:37;;;;;;;;;6.33;4.33;;;;;5.72;62.06;103112.81;5100388;27;45409;-80
2022/01/21 01:10:05;;;;;;;;;9.67;5.67;;;;;5.75;61.96;103122.59;5100595;27;45606;-79
2022/01/21 01:19:55;;;;;;;;;5.67;5.67;;;;;5.74;61.80;103108.13;5099885;27;45835;-78
2022/01/21 01:20:55;;;;;;;;;8.00;6.33;;;;;5.65;62.16;103111.56;5099253;27;45471;-77
2022/01/21 01:23:49;;;;;;;;;5.00;4.00;;;;;5.66;62.40;103107.84;5097839;27;44788;-74
2022/01/21 01:28:50;;;;;;;;;12.67;7.33;;;;;5.55;62.73;103105.06;5074049;28;45479;-72
2022/01/21 01:31:15;;;;;;;;;11.33;9.00;;;;;5.45;62.52;103097.63;5074320;28;46406;-73
2022/01/21 01:33:44;;;;;;;;;8.67;5.00;;;;;5.50;63.04;103123.63;5092710;27;45727;-72
2022/01/21 01:36:09;;;;;;;;;6.33;5.00;;;;;5.45;62.97;103119.38;5064634;28;45425;-72
2022/01/21 01:41:12;;;;;;;;;7.00;7.00;;;;;5.37;63.62;103115.50;5094897;27;45538;-71
2022/01/21 01:51:51;;;;;;;;;5.00;5.00;;;;;5.13;63.70;103119.09;5074167;28;46019;-72
2022/01/21 01:54:17;;;;;;;;;8.33;4.00;;;;;5.10;63.51;103113.88;5077148;27;45493;-78
2022/01/21 01:56:53;;;;;;;;;10.67;5.00;;;;;5.10;64.01;103125.63;5083452;27;45808;-75
2022/01/21 01:59:24;;;;;;;;;15.67;6.67;;;;;5.09;63.64;103123.00;5098548;27;45749;-80
2022/01/21 02:01:59;;;;;;;;;3.33;3.33;;;;;5.04;63.67;103114.34;5061953;28;47435;-74
2022/01/21 02:04:28;;;;;;;;;12.00;7.00;;;;;5.07;62.99;103128.56;5099615;27;45476;-76
2022/01/21 02:06:53;;;;;;;;;5.00;4.00;;;;;5.03;63.53;103126.19;5082506;27;45486;-76
2022/01/21 02:09:20;;;;;;;;;6.33;4.00;;;;;5.03;63.29;103120.75;5075658;27;46465;-79
2022/01/21 02:11:52;;;;;;;;;7.33;5.00;;;;;5.06;63.22;103128.66;5100978;27;46377;-80
2022/01/21 02:14:25;;;;;;;;;9.67;7.00;;;;;4.99;63.81;103124.69;5081453;27;45420;-77
2022/01/21 02:22:11;;;;;;;;;10.00;4.00;;;;;4.95;63.61;103126.75;5093664;27;45935;-77
2022/01/21 02:24:50;;;;;;;;;8.00;7.00;;;;;4.92;64.31;103130.56;5100542;27;45786;-78
2022/01/21 02:27:16;;;;;;;;;7.33;5.33;;;;;4.90;64.17;103128.97;5098943;27;45498;-78
2022/01/21 02:29:48;;;;;;;;;6.33;5.33;;;;;4.85;63.77;103125.69;5099397;27;45476;-78
2022/01/21 02:32:15;;;;;;;;;14.00;9.00;;;;;4.84;64.26;103126.69;5100653;27;46148;-78
2022/01/21 02:34:42;;;;;;;;;10.00;4.67;;;;;4.84;64.55;103124.81;5099869;27;45465;-79
2022/01/21 02:37:11;;;;;;;;;9.67;8.00;;;;;4.82;63.82;103128.63;5100658;27;45473;-79
2022/01/21 02:39:37;;;;;;;;;10.33;7.00;;;;;4.80;63.75;103125.16;5089473;27;45751;-78
2022/01/21 02:42:03;;;;;;;;;7.67;6.00;;;;;4.76;64.70;103117.25;5089230;27;45349;-77
2022/01/21 02:44:29;;;;;;;;;8.33;5.67;;;;;4.75;64.57;103129.09;5069161;27;45501;-79
2022/01/21 02:46:58;;;;;;;;;8.67;4.67;;;;;4.75;64.47;103120.94;5099067;27;45778;-77
2022/01/21 02:49:24;;;;;;;;;7.33;4.00;;;;;4.73;64.48;103131.06;5099338;27;45360;-79
2022/01/21 02:51:55;;;;;;;;;12.33;8.00;;;;;4.73;63.76;103117.47;5083904;27;47476;-81
2022/01/21 02:54:21;;;;;;;;;10.33;8.33;;;;;4.71;65.14;103119.41;5101778;27;45698;-78
2022/01/21 02:56:47;;;;;;;;;4.33;4.33;;;;;4.58;64.08;103111.28;5080762;27;45829;-77
2022/01/21 02:59:22;;;;;;;;;5.33;5.33;;;;;4.68;64.93;103132.38;5080076;27;45769;-80
2022/01/21 03:01:49;;;;;;;;;6.67;5.33;;;;;4.67;63.81;103126.06;5082068;27;45574;-75
2022/01/21 03:04:22;;;;;;;;;7.33;5.00;;;;;4.67;64.55;103139.66;5096972;27;45542;-80
2022/01/21 03:06:47;;;;;;;;;4.00;4.00;;;;;4.66;64.43;103132.47;5099251;27;45483;-75
2022/01/21 03:09:13;;;;;;;;;8.00;4.00;;;;;4.66;64.81;103123.47;5096812;27;45429;-77
2022/01/21 03:11:38;;;;;;;;;10.00;7.00;;;;;4.63;64.67;103129.97;5096228;27;46411;-75
2022/01/21 03:14:04;;;;;;;;;8.00;5.67;;;;;4.64;63.70;103122.69;5095875;27;45420;-75
2022/01/21 03:16:29;;;;;;;;;9.33;7.67;;;;;4.62;64.55;103130.09;5077454;27;45286;-74
2022/01/21 03:18:55;;;;;;;;;5.00;5.00;;;;;4.59;64.68;103131.19;5098739;27;45457;-81
2022/01/21 03:21:21;;;;;;;;;8.33;7.67;;;;;4.45;65.02;103121.31;5101938;27;45423;-79
2022/01/21 03:23:49;;;;;;;;;3.00;3.00;;;;;4.50;65.00;103131.84;5099310;27;45364;-74
2022/01/21 03:26:17;;;;;;;;;3.00;3.00;;;;;4.54;64.70;103138.81;5096546;27;45560;-75
2022/01/21 03:28:44;;;;;;;;;6.00;5.00;;;;;4.53;65.62;103134.34;5097246;27;45484;-74
2022/01/21 03:31:10;;;;;;;;;10.00;7.00;;;;;4.51;64.13;103137.16;5096473;27;45358;-76
2022/01/21 03:33:36;;;;;;;;;6.67;6.67;;;;;4.44;64.83;103133.13;5099320;27;45729;-75
2022/01/21 03:36:01;;;;;;;;;8.67;5.33;;;;;4.46;65.83;103135.75;5099575;27;45364;-74
2022/01/21 03:38:33;;;;;;;;;7.00;4.00;;;;;4.47;65.56;103151.09;5100131;27;45544;-77
2022/01/21 03:40:58;;;;;;;;;9.33;6.33;;;;;4.46;64.87;103146.63;5082693;27;46891;-79
2022/01/21 03:43:25;;;;;;;;;8.50;3.75;;;;;4.46;65.91;103142.06;5100505;27;45739;-75
2022/01/21 03:45:51;;;;;;;;;9.67;7.00;;;;;4.49;65.92;103141.84;5081916;27;45694;-74
2022/01/21 03:48:19;;;;;;;;;7.50;4.50;;;;;4.51;65.78;103150.75;5084077;27;46211;-76
2022/01/21 03:50:45;;;;;;;;;5.33;4.00;;;;;4.64;64.54;103148.03;5087345;27;47553;-79
2022/01/21 03:53:11;;;;;;;;;7.33;6.67;;;;;4.73;65.41;103147.38;5082740;27;45456;-76
2022/01/21 03:55:37;;;;;;;;;3.33;3.00;;;;;4.78;64.49;103138.88;5097408;27;45971;-76
2022/01/21 03:58:05;;;;;;;;;4.00;4.00;;;;;4.82;64.71;103136.78;5072783;27;45581;-77
2022/01/21 04:00:37;;;;;;;;;9.00;5.00;;;;;4.83;64.25;103144.84;5100264;27;45594;-75
2022/01/21 04:03:03;;;;;;;;;8.00;7.67;;;;;4.85;64.10;103144.72;5100183;27;45393;-78
2022/01/21 04:05:29;;;;;;;;;9.33;7.00;;;;;4.82;64.32;103132.25;5105940;27;45385;-79
2022/01/21 04:07:55;;;;;;;;;3.00;3.00;;;;;4.87;64.26;103138.19;5103602;27;45377;-77
2022/01/21 04:10:21;;;;;;;;;5.00;5.00;;;;;4.85;64.40;103140.16;5102710;27;45423;-78
2022/01/21 04:12:46;;;;;;;;;7.33;7.33;;;;;4.88;64.64;103149.94;5101681;27;45669;-77
2022/01/21 04:15:13;;;;;;;;;10.67;6.33;;;;;4.88;64.44;103158.09;5103760;27;45718;-78
2022/01/21 04:17:38;;;;;;;;;9.67;9.67;;;;;4.88;64.39;103152.66;5101642;27;45727;-78
2022/01/21 04:20:05;;;;;;;;;8.00;5.67;;;;;4.89;63.76;103148.97;5103001;27;45554;-79
2022/01/21 04:22:31;;;;;;;;;4.33;4.00;;;;;4.94;63.36;103154.94;5101739;27;45525;-81
2022/01/21 04:24:59;;;;;;;;;10.00;9.00;;;;;4.93;63.90;103154.06;5105486;27;45511;-78
2022/01/21 04:27:24;;;;;;;;;8.00;5.33;;;;;4.97;63.81;103171.03;5105339;27;45458;-78
2022/01/21 04:29:50;;;;;;;;;9.00;7.33;;;;;4.93;63.81;103164.06;5102414;27;45399;-78
2022/01/21 04:32:16;;;;;;;;;8.67;6.00;;;;;4.93;63.63;103150.47;5101987;27;45392;-79
2022/01/21 04:34:41;;;;;;;;;7.00;5.33;;;;;4.89;63.82;103163.41;5102319;27;45404;-79
2022/01/21 04:37:10;;;;;;;;;10.00;7.00;;;;;4.91;64.24;103160.59;5082983;27;46804;-77
2022/01/21 04:39:42;;;;;;;;;7.67;7.00;;;;;4.93;64.12;103161.34;5098944;27;46255;-77
2022/01/21 04:47:31;;;;;;;;;9.67;5.67;;;;;4.93;63.20;103142.31;5098241;27;46114;-74
2022/01/21 04:49:57;;;;;;;;;8.00;6.67;;;;;5.01;62.87;103161.66;5121333;27;46059;-78
2022/01/21 04:52:23;;;;;;;;;5.00;4.00;;;;;5.00;64.00;103154.50;5102779;27;45506;-78
2022/01/21 04:54:50;;;;;;;;;6.33;4.33;;;;;5.00;63.85;103153.59;5100457;27;45362;-80
2022/01/21 04:57:16;;;;;;;;;5.00;5.00;;;;;4.97;63.75;103146.56;5109344;27;45589;-75
2022/01/21 04:59:42;;;;;;;;;5.00;5.00;;;;;4.99;63.25;103155.47;5098688;27;46044;-75
2022/01/21 05:02:08;;;;;;;;;8.00;3.67;;;;;5.04;63.59;103166.88;5101121;27;45294;-79
2022/01/21 05:04:34;;;;;;;;;5.00;5.00;;;;;5.02;63.13;103160.69;5098919;27;45317;-77
2022/01/21 05:07:04;;;;;;;;;8.00;5.33;;;;;5.00;63.89;103161.75;5102481;27;45448;-80
2022/01/21 05:09:33;;;;;;;;;9.67;5.33;;;;;5.10;63.12;103169.16;5102781;27;45649;-78
2022/01/21 05:12:01;;;;;;;;;6.67;4.00;;;;;5.09;63.32;103164.69;5104689;27;45616;-79
2022/01/21 05:17:14;;;;;;;;;10.00;7.00;;;;;5.25;63.02;103177.16;5100421;27;45715;-78
2022/01/21 05:19:39;;;;;;;;;4.67;4.67;;;;;5.21;63.52;103167.47;5081482;27;46259;-77
2022/01/21 05:22:05;;;;;;;;;12.67;9.00;;;;;5.23;63.95;103165.53;5099858;27;45295;-78
2022/01/21 05:24:31;;;;;;;;;3.33;3.33;;;;;5.29;63.06;103170.50;5104329;27;45820;-80
2022/01/21 05:26:58;;;;;;;;;7.00;4.33;;;;;5.25;62.83;103164.41;5100095;27;45552;-77
2022/01/21 05:29:32;;;;;;;;;4.67;4.00;;;;;5.28;63.07;103158.75;5115561;27;46966;-78
2022/01/21 05:32:00;;;;;;;;;4.33;4.33;;;;;5.29;63.36;103160.47;5095643;27;45721;-78
2022/01/21 05:34:26;;;;;;;;;4.00;4.00;;;;;5.29;62.93;103160.47;5107537;27;45507;-74
2022/01/21 05:36:55;;;;;;;;;11.67;11.67;;;;;5.30;63.73;103173.13;5076251;27;45477;-73
2022/01/21 05:39:21;;;;;;;;;9.00;7.33;;;;;5.34;63.34;103167.44;5097564;27;46350;-73
2022/01/21 05:41:50;;;;;;;;;8.00;4.33;;;;;5.42;62.95;103170.44;5103269;27;45435;-72
2022/01/21 05:46:22;;;;;;;;;6.00;5.67;;;;;5.41;62.97;103168.72;5101376;27;45816;-77
2022/01/21 05:47:06;;;;;;;;;6.00;6.00;;;;;5.42;62.28;103176.78;5102902;27;45523;-79
2022/01/21 05:49:35;;;;;;;;;9.67;6.67;;;;;5.33;63.00;103177.47;5104859;27;45424;-78
2022/01/21 05:52:07;;;;;;;;;8.00;5.00;;;;;5.33;62.35;103188.34;5104334;27;44811;-78
2022/01/21 05:54:33;;;;;;;;;8.33;6.67;;;;;5.32;62.66;103185.75;5081042;27;45781;-71
2022/01/21 05:57:01;;;;;;;;;8.67;5.67;;;;;5.28;63.08;103179.63;5087614;27;45637;-72
2022/01/21 05:59:27;;;;;;;;;9.67;6.33;;;;;5.27;62.56;103184.22;5105140;27;45511;-74
2022/01/21 06:01:53;;;;;;;;;9.00;6.67;;;;;5.22;63.37;103191.84;5089131;27;45826;-79
2022/01/21 06:04:18;;;;;;;;;6.67;6.33;;;;;5.19;63.00;103183.03;5097634;27;45575;-76
2022/01/21 06:06:44;;;;;;;;;11.00;8.00;;;;;5.16;63.12;103181.41;5099151;27;45716;-77
2022/01/21 06:09:10;;;;;;;;;9.00;5.00;;;;;5.07;63.59;103187.53;5092449;27;46179;-75
2022/01/21 06:11:35;;;;;;;;;8.00;4.00;;;;;5.04;63.96;103190.47;5080327;28;45335;-75
2022/01/21 06:14:07;;;;;;;;;5.00;4.00;;;;;5.01;63.32;103185.28;5050603;28;45420;-77
2022/01/21 06:16:38;;;;;;;;;8.33;7.00;;;;;4.92;63.93;103192.25;5068863;27;46512;-77
2022/01/21 06:19:04;;;;;;;;;12.00;7.00;;;;;4.94;63.58;103193.88;5071190;28;46334;-76
2022/01/21 06:21:29;;;;;;;;;12.33;12.33;;;;;4.90;64.28;103184.19;5079039;27;45644;-74
2022/01/21 06:23:55;;;;;;;;;5.00;5.00;;;;;4.99;63.73;103207.13;5063068;27;45750;-73
2022/01/21 06:26:20;;;;;;;;;10.33;5.67;;;;;5.01;64.74;103199.72;5079641;27;45538;-75
2022/01/21 06:28:46;;;;;;;;;3.67;3.67;;;;;5.02;64.50;103198.75;5077930;28;45922;-75
2022/01/21 06:31:11;;;;;;;;;7.00;4.67;;;;;5.08;63.63;103192.88;5061702;27;45848;-77
2022/01/21 06:33:37;;;;;;;;;6.00;6.00;;;;;5.16;63.64;103197.72;5093673;27;45807;-75
2022/01/21 06:36:03;;;;;;;;;8.00;5.00;;;;;5.22;63.11;103200.00;5069254;28;45955;-75
2022/01/21 06:38:28;;;;;;;;;6.33;6.33;;;;;5.23;63.23;103193.59;5076055;28;45564;-73
2022/01/21 06:40:54;;;;;;;;;6.67;4.00;;;;;5.28;63.16;103202.28;5056369;28;45773;-74
2022/01/21 06:43:21;;;;;;;;;10.00;7.00;;;;;5.35;63.23;103204.56;5083998;27;45395;-72
2022/01/21 06:45:50;;;;;;;;;6.00;4.00;;;;;5.37;63.31;103216.19;5073372;27;45741;-72
2022/01/21 06:48:18;;;;;;;;;10.00;8.00;;;;;5.40;62.65;103211.38;5068210;27;45935;-75
2022/01/21 06:50:47;;;;;;;;;7.33;5.67;;;;;5.36;62.49;103203.56;5061709;27;45446;-75
2022/01/21 06:53:12;;;;;;;;;4.33;4.00;;;;;5.45;62.15;103219.22;5067526;28;45403;-74
2022/01/21 06:55:38;;;;;;;;;7.33;6.67;;;;;5.52;62.41;103222.34;5073805;28;45310;-74
2022/01/21 06:58:05;;;;;;;;;11.67;8.33;;;;;5.51;62.28;103202.44;5066607;28;45411;-74
2022/01/21 07:00:30;;;;;;;;;10.00;6.67;;;;;5.51;62.62;103216.03;5052266;28;45857;-73
2022/01/21 07:02:56;;;;;;;;;9.67;7.33;;;;;5.51;62.33;103221.50;5052583;28;45862;-74
2022/01/21 07:05:22;;;;;;;;;8.00;6.33;;;;;5.51;62.42;103232.38;5054708;28;45449;-74
2022/01/21 07:07:49;;;;;;;;;9.33;5.67;;;;;5.58;62.12;103230.06;5054763;28;46125;-73
2022/01/21 07:10:15;;;;;;;;;7.00;3.67;;;;;5.60;61.95;103230.81;5054068;28;46227;-72
2022/01/21 07:12:44;;;;;;;;;11.67;8.00;;;;;5.60;61.97;103228.09;5040973;28;45461;-76
2022/01/21 07:15:11;;;;;;;;;9.67;7.00;;;;;5.59;61.98;103220.91;5071701;28;45501;-75
2022/01/21 07:17:37;;;;;;;;;8.33;5.00;;;;;5.58;61.86;103235.50;5073431;27;45545;-74
2022/01/21 07:20:04;;;;;;;;;7.33;7.00;;;;;5.54;62.22;103236.69;5074452;27;45438;-73
2022/01/21 07:22:35;;;;;;;;;4.33;4.33;;;;;5.50;62.08;103246.09;5094866;27;45361;-73
2022/01/21 07:25:02;;;;;;;;;12.33;7.33;;;;;5.51;62.47;103245.09;5082969;27;45463;-74
2022/01/21 07:27:27;;;;;;;;;9.33;7.00;;;;;5.54;62.96;103247.59;5105941;27;45664;-75
2022/01/21 07:29:53;;;;;;;;;6.00;5.00;;;;;5.55;63.12;103250.19;5107172;27;45405;-75
2022/01/21 07:32:18;;;;;;;;;9.33;7.67;;;;;5.54;63.67;103250.31;5103595;27;45408;-76
2022/01/21 07:34:44;;;;;;;;;9.00;8.00;;;;;5.52;63.48;103244.13;5084153;27;45976;-74
2022/01/21 07:37:09;;;;;;;;;7.00;4.00;;;;;5.55;62.90;103262.94;5101071;27;46089;-77
2022/01/21 07:39:35;;;;;;;;;10.33;6.67;;;;;5.60;63.75;103271.66;5074282;27;45930;-75
2022/01/21 07:42:00;;;;;;;;;10.00;9.00;;;;;5.66;63.22;103268.47;5103752;27;45931;-72
2022/01/21 07:44:26;;;;;;;;;8.33;5.33;;;;;5.71;63.02;103265.41;5076043;27;45993;-74
2022/01/21 07:46:52;;;;;;;;;7.00;6.67;;;;;5.76;62.31;103257.75;5091897;27;45446;-72
2022/01/21 07:49:18;;;;;;;;;11.67;6.67;;;;;5.76;62.15;103260.47;5090856;27;45858;-75
2022/01/21 07:51:44;;;;;;;;;9.00;6.33;;;;;5.77;62.16;103268.53;5063270;27;45719;-74
2022/01/21 07:54:11;;;;;;;;;10.67;8.67;;;;;5.81;62.00;103270.03;5077333;27;45438;-74
2022/01/21 07:56:37;;;;;;;;;9.00;8.00;;;;;5.87;61.92;103267.81;5058895;27;47875;-72
2022/01/21 07:59:07;;;;;;;;;7.33;6.33;;;;;5.84;61.67;103275.25;5066345;28;45514;-74
2022/01/21 08:01:33;;;;;;;;;7.67;5.00;;;;;5.97;61.65;103279.81;5060571;27;45808;-74
2022/01/21 08:03:59;;;;;;;;;6.33;6.33;;;;;6.03;61.79;103282.06;5089508;27;46575;-75
2022/01/21 08:06:24;;;;;;;;;11.67;8.00;;;;;6.05;61.98;103285.56;5088078;27;46219;-72
2022/01/21 08:08:50;;;;;;;;;7.33;6.33;;;;;6.09;60.76;103284.34;5074895;27;45436;-74
2022/01/21 08:11:16;;;;;;;;;7.00;5.00;;;;;6.18;61.19;103291.81;5074372;27;45738;-75
2022/01/21 08:13:42;;;;;;;;;7.67;7.67;;;;;6.27;60.59;103292.09;5078508;27;45577;-75
2022/01/21 08:16:07;;;;;;;;;11.33;6.00;;;;;6.33;60.62;103294.34;5093754;27;45807;-74
2022/01/21 08:18:33;;;;;;;;;16.00;7.67;;;;;6.39;60.67;103293.84;5096536;27;45463;-73
2022/01/21 08:20:58;;;;;;;;;9.67;8.67;;;;;6.46;59.94;103300.59;5083203;27;45418;-76
2022/01/21 08:23:24;;;;;;;;;10.67;9.33;;;;;6.52;59.76;103293.78;5095660;27;46814;-74
2022/01/21 08:25:49;;;;;;;;;10.00;10.00;;;;;6.53;59.66;103293.66;5096204;27;46174;-72
2022/01/21 08:28:18;;;;;;;;;10.00;8.00;;;;;6.58;59.69;103295.19;5096828;27;45752;-76
2022/01/21 08:30:43;;;;;;;;;9.33;8.67;;;;;6.62;59.93;103293.97;5096894;27;45759;-74
2022/01/21 08:33:09;;;;;;;;;9.00;7.33;;;;;6.64;59.65;103284.66;5093431;27;45429;-74
2022/01/21 08:35:36;;;;;;;;;13.00;10.33;;;;;6.71;59.92;103290.50;5077008;27;46506;-72
2022/01/21 08:38:02;;;;;;;;;13.00;9.00;;;;;6.77;58.86;103294.63;5078145;27;45798;-73
2022/01/21 08:40:27;;;;;;;;;9.67;7.33;;;;;6.85;59.59;103292.13;5104554;27;45647;-74
2022/01/21 08:42:53;;;;;;;;;16.33;13.00;;;;;6.90;59.51;103298.09;5087238;27;45470;-73
2022/01/21 08:45:20;;;;;;;;;9.00;9.00;;;;;7.00;58.96;103293.63;5084623;27;47125;-79
2022/01/21 08:47:45;;;;;;;;;3.33;3.33;;;;;7.08;58.96;103295.78;5087981;27;45581;-78
2022/01/21 08:50:17;;;;;;;;;13.00;10.00;;;;;7.18;58.00;103293.16;5110545;27;45447;-74
2022/01/21 08:52:43;;;;;;;;;12.00;8.00;;;;;7.21;58.13;103301.97;5072085;27;45862;-78
2022/01/21 08:55:15;;;;;;;;;11.33;9.67;;;;;7.29;57.92;103301.38;5096594;27;45413;-79
2022/01/21 08:57:49;;;;;;;;;11.67;7.00;;;;;7.35;58.89;103298.13;5083615;27;45836;-72
2022/01/21 09:00:23;;;;;;;;;12.00;9.00;;;;;7.38;59.30;103299.72;5097206;27;45396;-79
2022/01/21 09:02:51;;;;;;;;;14.67;9.00;;;;;7.41;58.10;103299.50;5107521;27;46924;-78
2022/01/21 09:05:16;;;;;;;;;10.67;10.33;;;;;7.48;58.43;103294.41;5089441;27;47315;-80
2022/01/21 09:07:42;;;;;;;;;11.67;7.00;;;;;7.58;57.99;103292.66;5089897;27;45428;-72
2022/01/21 09:10:09;;;;;;;;;10.00;8.33;;;;;7.65;58.63;103303.91;5073757;27;45422;-72
2022/01/21 09:12:35;;;;;;;;;12.67;12.00;;;;;7.72;58.16;103294.22;5086128;27;47421;-80
2022/01/21 09:15:00;;;;;;;;;9.33;9.33;;;;;7.89;57.55;103312.84;5100143;27;46228;-82
2022/01/21 09:17:26;;;;;;;;;11.33;11.33;;;;;8.01;57.17;103312.78;5100491;27;45467;-79
2022/01/21 09:19:52;;;;;;;;;11.67;7.00;;;;;8.11;57.77;103308.28;5083798;27;45818;-78
2022/01/21 09:22:17;;;;;;;;;10.00;7.67;;;;;8.19;57.26;103300.31;5094968;27;45735;-79
2022/01/21 09:24:43;;;;;;;;;15.67;13.00;;;;;8.30;57.47;103307.59;5097931;27;45739;-71
2022/01/21 09:27:09;;;;;;;;;17.67;15.00;;;;;8.38;56.62;103317.88;5098578;27;45340;-79
2022/01/21 09:29:35;;;;;;;;;14.00;12.67;;;;;8.43;56.43;103310.19;5083350;27;45373;-77
2022/01/21 09:32:02;;;;;;;;;17.67;13.00;;;;;8.53;55.88;103319.31;5086363;27;45637;-76
2022/01/21 09:34:28;;;;;;;;;20.33;14.33;;;;;8.66;55.77;103328.22;5063248;27;48178;-77
2022/01/21 09:36:55;;;;;;;;;18.67;15.67;;;;;8.70;55.79;103336.16;5096277;27;45446;-77
2022/01/21 09:39:21;;;;;;;;;18.33;15.33;;;;;8.78;56.01;103344.59;5089157;27;45800;-76
2022/01/21 09:41:48;;;;;;;;;18.33;14.00;;;;;8.84;54.98;103355.00;5082938;27;45377;-76
2022/01/21 09:44:16;;;;;;;;;15.33;14.33;;;;;8.87;54.97;103349.25;5078037;28;45301;-77
2022/01/21 09:46:49;;;;;;;;;15.00;9.67;;;;;8.90;55.92;103354.47;5077763;28;45401;-75
2022/01/21 09:49:27;;;;;;;;;13.00;12.00;;;;;8.95;55.55;103354.06;5076290;28;45461;-73
2022/01/21 09:52:07;;;;;;;;;12.33;11.67;;;;;9.00;55.42;103357.28;5085148;27;45428;-71
2022/01/21 09:54:35;;;;;;;;;17.33;12.00;;;;;8.99;55.40;103350.91;5086498;27;45527;-73
2022/01/21 09:57:03;;;;;;;;;10.33;9.33;;;;;9.04;54.33;103355.13;5093843;27;45725;-71
2022/01/21 09:59:31;;;;;;;;;9.00;7.67;;;;;9.05;54.67;103356.88;5095177;27;45614;-73
2022/01/21 10:02:00;;;;;;;;;14.00;9.67;;;;;9.07;55.65;103363.97;5086875;27;45335;-72
2022/01/21 10:04:35;;;;;;;;;14.33;11.33;;;;;9.06;55.35;103364.94;5092844;27;46128;-77
2022/01/21 10:07:01;;;;;;;;;9.67;7.67;;;;;9.15;54.83;103375.09;5097396;27;45826;-76
2022/01/21 10:09:28;;;;;;;;;14.33;12.33;;;;;9.15;54.94;103366.88;5085651;27;45766;-76
2022/01/21 10:11:56;;;;;;;;;10.67;9.00;;;;;9.14;54.51;103375.22;5081349;27;45771;-73
2022/01/21 10:14:24;;;;;;;;;12.33;9.67;;;;;9.15;54.76;103360.53;5093267;27;46315;-72
2022/01/21 10:16:50;;;;;;;;;13.67;11.00;;;;;9.18;54.86;103360.25;5093305;27;45424;-72
2022/01/21 10:19:27;;;;;;;;;15.00;14.00;;;;;9.24;54.81;103359.72;5095049;27;45525;-72
2022/01/21 10:22:08;;;;;;;;;12.00;12.00;;;;;9.31;53.93;103360.91;5094762;27;45759;-74
2022/01/21 10:24:37;;;;;;;;;11.00;9.00;;;;;9.38;54.45;103363.97;5095153;27;45723;-74
2022/01/21 10:27:04;;;;;;;;;17.33;16.67;;;;;9.52;53.81;103359.97;5093300;27;45854;-73
2022/01/21 10:29:40;;;;;;;;;14.33;12.00;;;;;9.50;54.06;103362.88;5094638;27;45439;-74
2022/01/21 10:32:07;;;;;;;;;14.33;13.67;;;;;9.56;53.81;103372.41;5094168;27;45559;-74
2022/01/21 10:34:41;;;;;;;;;14.67;10.00;;;;;9.60;54.18;103365.66;5096887;27;45832;-75
2022/01/21 10:37:30;;;;;;;;;13.00;9.00;;;;;9.68;53.53;103368.56;5074925;27;45428;-74
2022/01/21 10:40:08;;;;;;;;;10.67;8.33;;;;;9.78;52.96;103359.53;5094198;27;45435;-74
2022/01/21 10:42:35;;;;;;;;;10.33;8.33;;;;;9.82;52.28;103358.22;5082699;27;46021;-74
2022/01/21 10:45:02;;;;;;;;;17.00;11.33;;;;;9.85;53.09;103349.72;5073648;27;45441;-73
2022/01/21 10:47:34;;;;;;;;;13.67;11.00;;;;;9.87;53.21;103361.44;5079797;27;45366;-71
2022/01/21 10:50:22;;;;;;;;;11.67;9.67;;;;;9.88;53.25;103354.94;5093834;27;45702;-74
2022/01/21 10:52:52;;;;;;;;;16.33;11.00;;;;;9.90;52.66;103363.91;5065526;27;45953;-74
2022/01/21 10:55:29;;;;;;;;;8.67;8.67;;;;;9.91;53.14;103351.94;5073941;27;46721;-73
2022/01/21 10:58:11;;;;;;;;;14.33;12.00;;;;;9.97;52.43;103348.63;5093198;27;45484;-73
2022/01/21 11:00:37;;;;;;;;;10.33;10.00;;;;;10.05;51.82;103354.25;5093945;27;45584;-74
2022/01/21 11:03:14;;;;;;;;;8.33;8.00;;;;;10.12;51.86;103348.19;5091366;27;45744;-74
2022/01/21 11:05:44;;;;;;;;;17.33;10.00;;;;;10.18;51.73;103355.84;5071685;27;46015;-73
2022/01/21 11:08:14;;;;;;;;;14.67;9.67;;;;;10.22;52.05;103355.47;5056505;28;45903;-79
2022/01/21 11:10:45;;;;;;;;;12.67;9.33;;;;;10.30;52.04;103348.38;5084037;27;45654;-75
2022/01/21 11:13:11;;;;;;;;;13.33;10.33;;;;;10.34;52.17;103350.72;5089296;27;45561;-75
2022/01/21 11:15:42;;;;;;;;;13.00;10.67;;;;;10.32;51.76;103347.22;5085628;27;46477;-75
2022/01/21 11:18:09;;;;;;;;;11.67;10.67;;;;;10.32;51.85;103341.75;5093642;27;45536;-73
2022/01/21 11:20:38;;;;;;;;;17.67;12.33;;;;;10.49;50.99;103353.03;5076756;27;45898;-79
2022/01/21 11:23:04;;;;;;;;;12.67;10.67;;;;;10.51;51.55;103351.91;5090625;27;46009;-81
2022/01/21 11:25:45;;;;;;;;;11.00;10.67;;;;;10.55;51.78;103347.88;5096586;27;46457;-79
2022/01/21 11:28:49;;;;;;;;;13.00;10.67;;;;;10.47;51.79;103349.59;5093666;27;45593;-78
2022/01/21 11:31:18;;;;;;;;;10.67;10.33;;;;;10.56;51.79;103356.94;5090884;27;45772;-81
2022/01/21 11:33:44;;;;;;;;;12.33;10.00;;;;;10.41;51.41;103349.13;5097108;27;45612;-76
2022/01/21 11:36:09;;;;;;;;;15.33;11.00;;;;;10.40;51.65;103344.69;5098359;27;46569;-80
2022/01/21 11:38:41;;;;;;;;;11.33;11.33;;;;;10.45;51.43;103340.63;5078751;27;45809;-79
2022/01/21 11:41:08;;;;;;;;;11.00;10.33;;;;;10.41;51.42;103335.41;5097723;27;45508;-79
2022/01/21 11:43:36;;;;;;;;;13.00;10.00;;;;;10.50;51.21;103341.06;5095133;27;45641;-77
2022/01/21 11:48:54;;;;;;;;;10.33;7.33;;;;;10.52;52.06;103334.41;5092037;27;45510;-78
2022/01/21 11:51:32;;;;;;;;;14.33;10.00;;;;;10.44;52.13;103328.78;5093811;27;45493;-79
2022/01/21 11:54:05;;;;;;;;;10.67;10.00;;;;;10.52;51.54;103333.53;5085322;27;46261;-78
2022/01/21 11:56:39;;;;;;;;;9.67;4.33;;;;;10.59;50.71;103331.97;5109824;27;46163;-81
2022/01/21 12:01:56;;;;;;;;;9.00;8.00;;;;;10.65;51.43;103323.13;5099495;27;45488;-78
2022/01/21 12:04:31;;;;;;;;;11.00;10.00;;;;;10.73;50.48;103334.28;5086073;27;45443;-78
2022/01/21 12:06:58;;;;;;;;;7.00;7.00;;;;;10.77;51.07;103335.69;5104877;27;45312;-79
2022/01/21 12:09:58;;;;;;;;;11.00;8.33;;;;;10.74;51.80;103335.13;5102750;27;45406;-79
2022/01/21 12:12:45;;;;;;;;;7.00;5.67;;;;;10.69;51.59;103335.56;5096106;27;45461;-79
2022/01/21 12:15:21;;;;;;;;;7.00;7.00;;;;;10.81;49.81;103324.41;5118791;27;45454;-80
2022/01/21 12:17:52;;;;;;;;;9.33;8.00;;;;;10.88;51.07;103334.69;5118527;27;45494;-79
2022/01/21 12:20:18;;;;;;;;;12.00;10.67;;;;;10.83;50.25;103315.03;5091651;27;45489;-80